Time;durP1;ratioP1;P1;durP2;ratioP2;P2;SDS_P1;SDS_P2;PMS_P1;PMS_P2;Temp;Humidity;BMP_temperature;BMP_pressure;BME280_temperature;BME280_humidity;BME280_pressure;Samples;Min_cycle;Max_cycle;Signal;HPM_P1;HPM_P2
2021/10/29 00:02:26;;;;;;;13.90;8.75;;;;;;;7.22;100.00;100541.00;5284644;28;20039;-79
2021/10/29 00:04:58;;;;;;;16.00;9.27;;;;;;;7.35;100.00;100541.56;5282256;28;20031;-79
2021/10/29 00:07:28;;;;;;;15.30;8.98;;;;;;;7.07;100.00;100544.81;5283838;28;20020;-80
2021/10/29 00:09:59;;;;;;;14.48;8.40;;;;;;;6.66;100.00;100551.75;5283935;28;20031;-80
2021/10/29 00:12:29;;;;;;;16.10;9.27;;;;;;;6.63;100.00;100549.22;5283713;28;20027;-80
2021/10/29 00:14:59;;;;;;;15.60;9.23;;;;;;;6.45;100.00;100547.84;5283686;28;20246;-79
2021/10/29 00:17:31;;;;;;;14.43;8.90;;;;;;;6.34;100.00;100542.03;5284063;28;20032;-79
2021/10/29 00:20:02;;;;;;;17.65;9.77;;;;;;;6.34;100.00;100546.34;5283582;28;20044;-80
2021/10/29 00:22:33;;;;;;;15.98;9.50;;;;;;;6.31;100.00;100544.69;5283747;28;20505;-80
2021/10/29 00:25:04;;;;;;;16.27;9.05;;;;;;;6.29;100.00;100550.78;5283678;28;20118;-79
2021/10/29 00:27:34;;;;;;;19.20;9.52;;;;;;;6.09;100.00;100550.28;5283880;28;20055;-79
2021/10/29 00:30:06;;;;;;;15.35;9.05;;;;;;;6.00;100.00;100545.25;5283747;28;20078;-79
2021/10/29 00:32:36;;;;;;;17.23;9.38;;;;;;;6.13;100.00;100544.16;5283719;28;20035;-80
2021/10/29 00:35:16;;;;;;;18.75;9.90;;;;;;;5.94;100.00;100533.25;5283130;28;20061;-78
2021/10/29 00:37:46;;;;;;;18.25;9.93;;;;;;;5.91;100.00;100537.66;5271325;28;20123;-79
2021/10/29 00:40:16;;;;;;;19.50;9.73;;;;;;;5.99;100.00;100530.56;5285927;28;20119;-79
2021/10/29 00:42:47;;;;;;;17.17;9.32;;;;;;;5.87;100.00;100525.59;5287838;28;20059;-79
2021/10/29 00:45:17;;;;;;;17.92;10.10;;;;;;;5.95;100.00;100529.75;5286748;28;20103;-78
2021/10/29 00:47:51;;;;;;;17.30;8.93;;;;;;;6.00;100.00;100532.28;5286952;28;20031;-80
2021/10/29 00:50:21;;;;;;;21.83;9.80;;;;;;;6.01;100.00;100528.78;5286221;28;20049;-78
2021/10/29 00:52:52;;;;;;;15.43;9.20;;;;;;;6.02;100.00;100531.38;5285107;28;20027;-80
2021/10/29 00:55:23;;;;;;;17.42;10.25;;;;;;;6.02;100.00;100528.78;5282122;28;20026;-79
2021/10/29 00:57:53;;;;;;;17.30;9.85;;;;;;;6.13;100.00;100531.19;5286306;28;20185;-78
2021/10/29 01:00:24;;;;;;;19.85;10.13;;;;;;;6.02;100.00;100525.31;5286375;28;20023;-79
2021/10/29 01:02:54;;;;;;;16.77;9.65;;;;;;;5.97;100.00;100533.22;5286000;28;20031;-81
2021/10/29 01:05:25;;;;;;;16.38;9.40;;;;;;;5.99;100.00;100534.03;5272370;28;20510;-79
2021/10/29 01:07:58;;;;;;;16.58;9.40;;;;;;;5.97;100.00;100524.56;5282867;28;20088;-81
2021/10/29 01:10:30;;;;;;;16.02;9.15;;;;;;;5.95;100.00;100519.38;5286718;28;20015;-80
2021/10/29 01:13:01;;;;;;;15.63;9.30;;;;;;;6.03;100.00;100520.13;5286645;28;20030;-81
2021/10/29 01:15:32;;;;;;;15.57;9.00;;;;;;;6.00;100.00;100520.19;5285972;28;20505;-79
2021/10/29 01:18:02;;;;;;;18.73;9.20;;;;;;;5.90;100.00;100513.44;5285549;28;20059;-81
2021/10/29 01:20:33;;;;;;;16.30;9.18;;;;;;;5.92;100.00;100508.22;5286109;28;20058;-79
2021/10/29 01:23:03;;;;;;;15.63;9.50;;;;;;;5.94;100.00;100506.47;5286310;28;20027;-80
2021/10/29 01:25:33;;;;;;;16.75;9.18;;;;;;;6.09;100.00;100503.59;5285540;28;20023;-80
2021/10/29 01:28:09;;;;;;;15.27;9.02;;;;;;;6.13;100.00;100494.88;5286191;28;20020;-79
2021/10/29 01:30:40;;;;;;;18.63;9.88;;;;;;;6.10;100.00;100492.31;5285967;28;20046;-78
2021/10/29 01:33:10;;;;;;;15.70;9.15;;;;;;;5.98;100.00;100498.59;5286045;28;20027;-81
2021/10/29 01:35:41;;;;;;;17.23;9.50;;;;;;;5.99;100.00;100487.34;5285082;28;20023;-80
2021/10/29 01:38:11;;;;;;;15.88;9.38;;;;;;;5.99;100.00;100505.50;5285920;28;20447;-82
2021/10/29 01:40:41;;;;;;;16.08;8.88;;;;;;;6.02;100.00;100499.38;5285663;28;20092;-81
2021/10/29 01:43:12;;;;;;;16.23;9.00;;;;;;;5.87;100.00;100495.34;5285960;28;20019;-79
2021/10/29 01:45:42;;;;;;;15.30;8.73;;;;;;;5.92;100.00;100488.31;5285529;28;20477;-79
2021/10/29 01:48:14;;;;;;;16.98;8.93;;;;;;;5.80;100.00;100495.47;5285226;28;20019;-78
2021/10/29 01:50:45;;;;;;;15.98;8.77;;;;;;;5.80;100.00;100495.47;5285239;28;20027;-79
2021/10/29 01:53:15;;;;;;;14.73;8.88;;;;;;;5.78;100.00;100495.50;5285061;28;20031;-79
2021/10/29 01:55:46;;;;;;;16.50;9.55;;;;;;;5.95;100.00;100497.78;5285477;28;20281;-81
2021/10/29 01:58:16;;;;;;;15.73;8.48;;;;;;;5.83;100.00;100498.88;5285736;28;20026;-81
2021/10/29 02:00:46;;;;;;;14.77;8.05;;;;;;;5.80;100.00;100492.88;5285403;28;20460;-80
2021/10/29 02:03:16;;;;;;;14.77;8.68;;;;;;;5.41;100.00;100494.38;5285152;28;20027;-79
2021/10/29 02:05:47;;;;;;;14.02;8.02;;;;;;;5.11;100.00;100488.81;5284235;28;20027;-79
2021/10/29 02:08:22;;;;;;;14.38;8.77;;;;;;;5.08;100.00;100488.88;5284771;28;20077;-81
2021/10/29 02:10:54;;;;;;;15.13;8.07;;;;;;;4.95;100.00;100489.91;5283131;28;20589;-79
2021/10/29 02:13:25;;;;;;;15.10;8.00;;;;;;;5.13;100.00;100487.06;5284909;28;20032;-79
2021/10/29 02:15:56;;;;;;;15.48;8.20;;;;;;;5.29;100.00;100496.31;5283999;28;20072;-81
2021/10/29 02:18:26;;;;;;;14.63;7.47;;;;;;;5.10;100.00;100491.41;5285165;28;20027;-82
2021/10/29 02:20:57;;;;;;;13.52;7.43;;;;;;;5.03;100.00;100492.41;5284713;28;20031;-80
2021/10/29 02:23:28;;;;;;;14.07;7.95;;;;;;;5.15;100.00;100482.72;5284954;28;20039;-79
2021/10/29 02:25:58;;;;;;;15.27;8.25;;;;;;;5.08;100.00;100481.09;5284185;28;20084;-79
2021/10/29 02:28:28;;;;;;;16.10;7.82;;;;;;;5.08;100.00;100488.88;5284115;28;20040;-79
2021/10/29 02:30:59;;;;;;;12.45;7.40;;;;;;;5.06;100.00;100484.59;5285099;28;20068;-79
2021/10/29 02:33:29;;;;;;;15.45;7.53;;;;;;;4.84;100.00;100483.19;5284479;28;20050;-82
2021/10/29 02:36:00;;;;;;;17.67;7.78;;;;;;;4.91;100.00;100496.03;5284474;28;20019;-79
2021/10/29 02:38:30;;;;;;;14.30;7.90;;;;;;;4.88;100.00;100480.53;5284263;28;20028;-82
2021/10/29 02:41:02;;;;;;;15.32;7.97;;;;;;;4.98;100.00;100482.09;5284352;28;20430;-78
2021/10/29 02:43:32;;;;;;;15.77;8.48;;;;;;;4.97;100.00;100480.41;5275276;28;20119;-80
2021/10/29 02:46:02;;;;;;;14.65;7.78;;;;;;;5.14;100.00;100472.38;5283826;28;20489;-78
2021/10/29 02:48:33;;;;;;;14.23;7.55;;;;;;;4.98;100.00;100474.34;5284665;28;20073;-81
2021/10/29 02:51:03;;;;;;;13.35;7.47;;;;;;;5.00;100.00;100475.16;5283527;28;20015;-80
2021/10/29 02:53:35;;;;;;;15.65;8.18;;;;;;;5.04;100.00;100476.84;5284169;28;20038;-78
2021/10/29 02:56:07;;;;;;;16.13;7.70;;;;;;;5.06;100.00;100474.22;5283635;28;20068;-81
2021/10/29 02:58:37;;;;;;;15.25;8.57;;;;;;;5.11;100.00;100468.09;5284357;28;20447;-77
2021/10/29 03:01:08;;;;;;;15.38;7.80;;;;;;;5.21;100.00;100466.22;5283074;27;20046;-80
2021/10/29 03:03:38;;;;;;;15.73;8.43;;;;;;;5.21;100.00;100472.28;5283707;28;20036;-80
2021/10/29 03:06:09;;;;;;;14.55;7.82;;;;;;;5.19;100.00;100471.41;5283810;28;20031;-79
2021/10/29 03:08:40;;;;;;;16.23;8.65;;;;;;;5.13;100.00;100476.69;5283522;28;20142;-82
2021/10/29 03:11:10;;;;;;;15.45;8.25;;;;;;;5.05;100.00;100468.22;5283947;28;20126;-80
2021/10/29 03:13:40;;;;;;;17.17;8.43;;;;;;;4.90;100.00;100470.16;5283477;28;20436;-79
2021/10/29 03:16:11;;;;;;;15.23;8.75;;;;;;;5.00;100.00;100475.16;5283351;28;20027;-79
2021/10/29 03:18:41;;;;;;;15.32;8.20;;;;;;;4.81;100.00;100470.28;5283382;28;20092;-80
2021/10/29 03:21:11;;;;;;;11.85;7.18;;;;;;;4.89;100.00;100473.63;5283876;28;20027;-78
2021/10/29 03:23:42;;;;;;;13.15;7.45;;;;;;;4.86;100.00;100465.91;5283510;28;20112;-80
2021/10/29 03:26:12;;;;;;;15.18;8.02;;;;;;;4.82;100.00;100475.44;5283424;28;20038;-77
2021/10/29 03:28:43;;;;;;;12.88;7.68;;;;;;;4.73;100.00;100467.81;5283882;28;20034;-82
2021/10/29 03:31:13;;;;;;;15.45;8.13;;;;;;;4.73;100.00;100466.94;5283480;28;20020;-80
2021/10/29 03:33:43;;;;;;;15.40;8.50;;;;;;;4.85;100.00;100459.00;5283625;28;20047;-79
2021/10/29 03:36:14;;;;;;;14.65;8.57;;;;;;;4.91;100.00;100462.38;5283413;28;20018;-78
2021/10/29 03:38:53;;;;;;;15.20;8.82;;;;;;;4.89;100.00;100469.31;5283343;28;20027;-77
2021/10/29 03:41:26;;;;;;;14.07;7.72;;;;;;;4.87;100.00;100465.88;5279317;28;20170;-80
2021/10/29 03:46:28;;;;;;;15.35;8.52;;;;;;;4.87;100.00;100468.47;5283480;28;20084;-81
2021/10/29 03:51:52;;;;;;;13.40;8.23;;;;;;;5.20;100.00;100474.88;5283162;28;20035;-80
2021/10/29 03:54:41;;;;;;;13.52;7.75;;;;;;;5.23;100.00;100482.59;5278302;28;20493;-78
2021/10/29 03:57:23;;;;;;;15.63;8.27;;;;;;;5.00;100.00;100485.53;5282844;28;20028;-79
2021/10/29 03:59:54;;;;;;;14.10;7.70;;;;;;;5.10;100.00;100478.47;5277925;28;20031;-82
2021/10/29 04:02:25;;;;;;;13.70;7.85;;;;;;;4.92;100.00;100473.56;5283716;28;20394;-78
2021/10/29 04:04:55;;;;;;;15.35;8.98;;;;;;;4.83;100.00;100471.97;5282417;28;20587;-78
2021/10/29 04:07:25;;;;;;;14.68;8.10;;;;;;;4.88;100.00;100469.31;5283492;28;20070;-78
2021/10/29 04:09:56;;;;;;;14.52;8.10;;;;;;;4.71;100.00;100471.28;5283259;28;20030;-77
2021/10/29 04:12:26;;;;;;;17.52;8.90;;;;;;;4.67;100.00;100474.81;5283024;28;20546;-77
2021/10/29 04:14:58;;;;;;;14.88;8.18;;;;;;;4.82;100.00;100465.06;5285795;28;20035;-79
2021/10/29 04:17:29;;;;;;;15.40;8.45;;;;;;;4.75;100.00;100473.81;5287138;28;20084;-78
2021/10/29 04:19:59;;;;;;;15.13;8.43;;;;;;;4.77;100.00;100471.22;5287292;28;20023;-79
2021/10/29 04:22:30;;;;;;;14.13;8.00;;;;;;;4.64;100.00;100474.84;5286664;28;20430;-81
2021/10/29 04:25:00;;;;;;;14.25;8.30;;;;;;;4.67;100.00;100467.03;5286014;28;20113;-78
2021/10/29 04:27:33;;;;;;;16.02;7.85;;;;;;;4.58;100.00;100464.56;5286757;28;20335;-78
2021/10/29 04:30:10;;;;;;;18.02;8.90;;;;;;;4.52;100.00;100469.81;5286975;28;20034;-81
2021/10/29 04:32:41;;;;;;;17.30;8.88;;;;;;;4.57;100.00;100466.31;5286884;28;20031;-78
2021/10/29 04:35:12;;;;;;;15.77;8.65;;;;;;;4.49;100.00;100475.88;5286006;28;20034;-80
2021/10/29 04:37:43;;;;;;;16.52;8.43;;;;;;;4.60;100.00;100474.03;5286445;28;20035;-78
2021/10/29 04:40:13;;;;;;;16.63;8.50;;;;;;;4.63;100.00;100466.22;5286755;28;20513;-80
2021/10/29 04:42:44;;;;;;;17.50;8.52;;;;;;;4.64;100.00;100467.09;5286520;28;20027;-79
2021/10/29 04:45:15;;;;;;;15.55;8.25;;;;;;;4.57;100.00;100471.47;5285280;28;20028;-79
2021/10/29 04:47:46;;;;;;;13.52;8.20;;;;;;;4.59;100.00;100467.13;5286675;28;20038;-80
2021/10/29 04:50:16;;;;;;;15.60;8.90;;;;;;;4.58;100.00;100468.03;5268192;28;20016;-77
2021/10/29 04:52:47;;;;;;;17.65;8.80;;;;;;;4.65;100.00;100467.03;5286257;28;20043;-78
2021/10/29 04:55:17;;;;;;;15.45;8.48;;;;;;;4.35;100.00;100461.44;5286301;28;20042;-77
2021/10/29 04:57:47;;;;;;;15.65;8.93;;;;;;;4.36;100.00;100458.84;5285963;28;20081;-78
2021/10/29 05:00:19;;;;;;;17.50;8.60;;;;;;;4.32;100.00;100445.94;5286271;28;20024;-80
2021/10/29 05:02:51;;;;;;;18.55;9.73;;;;;;;4.46;100.00;100446.63;5286503;28;20028;-76
2021/10/29 05:05:22;;;;;;;15.20;8.57;;;;;;;4.46;100.00;100455.22;5281847;28;20591;-76
2021/10/29 05:07:52;;;;;;;17.77;8.98;;;;;;;4.47;100.00;100448.34;5286037;28;20034;-77
2021/10/29 05:10:23;;;;;;;15.95;9.35;;;;;;;4.42;100.00;100448.41;5286517;28;20026;-77
2021/10/29 05:12:53;;;;;;;16.08;9.02;;;;;;;4.43;100.00;100460.44;5285737;28;20030;-78
2021/10/29 05:15:24;;;;;;;14.38;8.45;;;;;;;4.45;100.00;100452.69;5286130;28;20035;-77
2021/10/29 05:17:55;;;;;;;17.23;9.13;;;;;;;4.32;100.00;100446.78;5285974;28;20049;-75
2021/10/29 05:20:26;;;;;;;15.75;8.65;;;;;;;4.38;100.00;100451.03;5286013;28;20506;-76
2021/10/29 05:22:56;;;;;;;14.52;8.45;;;;;;;4.24;100.00;100443.47;5286251;28;20035;-75
2021/10/29 05:25:27;;;;;;;14.52;8.43;;;;;;;4.41;100.00;100445.81;5284951;28;20114;-78
2021/10/29 05:27:57;;;;;;;16.23;8.40;;;;;;;4.40;100.00;100437.22;5275688;28;20027;-78
2021/10/29 05:30:27;;;;;;;15.52;8.45;;;;;;;4.41;100.00;100445.81;5285441;28;20495;-76
2021/10/29 05:32:58;;;;;;;16.30;9.35;;;;;;;4.41;100.00;100438.94;5285226;28;20076;-77
2021/10/29 05:35:28;;;;;;;17.55;9.25;;;;;;;4.46;100.00;100434.53;5284007;28;20481;-76
2021/10/29 05:37:58;;;;;;;15.95;9.52;;;;;;;4.47;100.00;100440.59;5284476;28;20106;-76
2021/10/29 05:40:28;;;;;;;16.95;9.10;;;;;;;4.43;100.00;100434.59;5285927;28;20084;-77
2021/10/29 05:42:59;;;;;;;17.95;9.70;;;;;;;4.58;100.00;100439.56;5284976;28;20039;-76
2021/10/29 05:45:29;;;;;;;17.88;10.07;;;;;;;4.63;100.00;100442.09;5284854;28;20036;-80
2021/10/29 05:48:05;;;;;;;20.75;10.15;;;;;;;4.67;100.00;100442.00;5285895;28;20035;-78
2021/10/29 05:50:37;;;;;;;16.45;9.18;;;;;;;4.80;100.00;100442.69;5275676;28;20498;-77
2021/10/29 05:53:08;;;;;;;17.80;9.60;;;;;;;4.79;100.00;100449.59;5283975;28;20103;-76
2021/10/29 05:55:38;;;;;;;17.70;10.02;;;;;;;4.72;100.00;100442.81;5285595;28;20035;-76
2021/10/29 05:58:09;;;;;;;15.52;9.43;;;;;;;4.88;100.00;100444.31;5285595;28;20023;-76
2021/10/29 06:00:39;;;;;;;16.98;9.45;;;;;;;4.83;100.00;100448.66;5280930;28;20040;-75
2021/10/29 06:03:09;;;;;;;16.15;9.00;;;;;;;4.87;100.00;100447.78;5284009;28;20096;-76
2021/10/29 06:05:40;;;;;;;19.02;10.13;;;;;;;4.91;100.00;100449.44;5284041;28;20192;-76
2021/10/29 06:08:10;;;;;;;18.50;9.52;;;;;;;4.70;100.00;100444.56;5284769;28;20285;-78
2021/10/29 06:10:40;;;;;;;18.25;10.15;;;;;;;4.70;100.00;100441.97;5284972;28;20024;-79
2021/10/29 06:13:11;;;;;;;19.55;9.82;;;;;;;4.53;100.00;100446.53;5285368;28;20399;-77
2021/10/29 06:15:43;;;;;;;18.02;10.30;;;;;;;4.47;100.00;100446.59;5284755;28;20507;-77
2021/10/29 06:18:22;;;;;;;18.48;10.07;;;;;;;4.43;100.00;100438.91;5285219;28;20059;-78
2021/10/29 06:20:55;;;;;;;16.77;9.73;;;;;;;4.37;100.00;100449.31;5281289;28;20019;-78
2021/10/29 06:23:35;;;;;;;17.60;10.45;;;;;;;4.47;100.00;100450.94;5284540;28;20031;-76
2021/10/29 06:26:18;;;;;;;19.02;10.02;;;;;;;4.51;100.00;100455.19;5284611;28;20038;-78
2021/10/29 06:28:48;;;;;;;19.08;10.05;;;;;;;4.46;100.00;100455.22;5285217;28;20265;-78
2021/10/29 06:31:19;;;;;;;19.05;10.95;;;;;;;4.67;100.00;100448.91;5285208;28;20029;-80
2021/10/29 06:33:49;;;;;;;17.98;9.57;;;;;;;4.69;100.00;100452.34;5284472;28;20031;-78
2021/10/29 06:36:20;;;;;;;16.67;9.40;;;;;;;4.80;100.00;100448.72;5283735;28;20191;-77
2021/10/29 06:38:50;;;;;;;19.05;9.95;;;;;;;4.94;100.00;100454.56;5284308;28;20061;-77
2021/10/29 06:41:20;;;;;;;18.15;9.63;;;;;;;4.96;100.00;100446.78;5284446;28;20023;-77
2021/10/29 06:44:23;;;;;;;18.98;9.57;;;;;;;4.99;100.00;100442.38;5284639;28;20028;-77
2021/10/29 07:42:57;;;;;;;15.82;8.90;;;;;;;7.08;100.00;100434.78;5280846;28;20122;-78
2021/10/29 07:45:26;;;;;;;15.45;8.65;;;;;;;7.86;100.00;100430.19;5278472;28;20059;-77
2021/10/29 07:47:58;;;;;;;15.55;8.52;;;;;;;8.26;100.00;100431.69;5285218;28;20483;-77
2021/10/29 07:50:29;;;;;;;12.40;6.38;;;;;;;9.13;100.00;100417.69;5288559;28;20035;-80
2021/10/29 07:53:00;;;;;;;14.40;7.43;;;;;;;9.22;100.00;100429.53;5287431;28;20099;-79
2021/10/29 07:55:30;;;;;;;12.50;6.93;;;;;;;8.96;100.00;100435.63;5284014;28;20505;-78
2021/10/29 07:58:03;;;;;;;12.52;6.25;;;;;;;9.66;100.00;100426.28;5277902;28;20024;-77
2021/10/29 08:00:33;;;;;;;9.73;6.47;;;;;;;9.63;100.00;100422.97;5288258;28;20054;-77
2021/10/29 08:03:06;;;;;;;10.93;6.53;;;;;;;10.75;96.29;100418.81;5287659;28;20053;-79
2021/10/29 08:05:37;;;;;;;9.82;6.55;;;;;;;11.79;89.44;100410.97;5286590;28;20023;-81
2021/10/29 08:08:07;;;;;;;9.25;5.80;;;;;;;13.17;84.41;100409.78;5285337;28;20031;-78
2021/10/29 08:10:38;;;;;;;9.20;5.57;;;;;;;14.04;80.75;100406.16;5287949;28;20482;-80
2021/10/29 08:13:08;;;;;;;12.70;5.82;;;;;;;14.97;76.69;100404.53;5288038;28;20042;-79
2021/10/29 08:15:40;;;;;;;8.70;5.68;;;;;;;15.63;73.29;100400.69;5286893;28;20019;-81
2021/10/29 08:18:11;;;;;;;9.35;5.13;;;;;;;15.91;71.63;100406.00;5276279;28;20467;-82
2021/10/29 08:20:41;;;;;;;9.55;5.70;;;;;;;16.18;72.33;100406.97;5287244;28;20107;-79
2021/10/29 08:23:12;;;;;;;7.78;5.55;;;;;;;16.54;71.09;100406.53;5286900;28;20545;-79
2021/10/29 08:25:42;;;;;;;7.55;5.07;;;;;;;16.88;71.27;100402.50;5287746;28;20039;-81
2021/10/29 08:28:13;;;;;;;11.60;5.78;;;;;;;17.33;69.97;100398.69;5287842;28;20045;-82
2021/10/29 08:30:43;;;;;;;9.55;5.18;;;;;;;17.20;69.68;100397.78;5287659;28;20603;-79
2021/10/29 08:33:13;;;;;;;8.90;5.40;;;;;;;16.31;73.30;100394.75;5287996;28;20077;-78
2021/10/29 08:35:44;;;;;;;8.60;5.65;;;;;;;16.03;73.33;100394.72;5287131;28;20034;-79
2021/10/29 08:38:15;;;;;;;9.73;6.15;;;;;;;14.83;76.64;100391.28;5287116;28;20035;-80
2021/10/29 08:40:46;;;;;;;9.50;5.50;;;;;;;13.48;83.74;100396.84;5287077;28;20023;-78
2021/10/29 08:43:16;;;;;;;8.95;6.25;;;;;;;12.99;87.20;100397.53;5286391;28;20313;-77
2021/10/29 08:45:48;;;;;;;9.55;6.28;;;;;;;12.44;90.27;100398.41;5287449;28;20055;-78
2021/10/29 08:48:18;;;;;;;9.88;5.82;;;;;;;12.05;92.46;100394.97;5286799;27;20027;-77
2021/10/29 08:50:49;;;;;;;9.15;5.90;;;;;;;12.07;91.92;100389.66;5286966;28;20034;-77
2021/10/29 08:53:19;;;;;;;10.88;6.43;;;;;;;11.73;95.21;100386.81;5276649;28;20440;-78
2021/10/29 08:55:50;;;;;;;8.00;5.53;;;;;;;12.11;95.39;100384.22;5286965;28;20493;-80
2021/10/29 08:58:21;;;;;;;8.60;5.35;;;;;;;12.30;93.54;100379.84;5287239;28;20482;-79
2021/10/29 09:00:53;;;;;;;11.10;5.82;;;;;;;12.31;94.95;100380.72;5286044;28;20023;-81
2021/10/29 09:03:30;;;;;;;7.65;5.07;;;;;;;12.32;93.25;100377.16;5287576;28;20449;-77
2021/10/29 09:06:17;;;;;;;8.68;5.13;;;;;;;12.64;93.25;100376.53;5286131;28;20035;-79
2021/10/29 09:31:40;;;;;;;10.23;5.43;;;;;;;13.25;94.77;100368.28;5284847;28;20406;-77
2021/10/29 09:34:12;;;;;;;11.18;6.03;;;;;;;13.33;94.42;100366.09;5282951;28;20153;-79
2021/10/29 09:36:50;;;;;;;8.20;5.15;;;;;;;13.42;94.75;100369.13;5268575;28;20474;-81
2021/10/29 09:39:24;;;;;;;9.27;4.78;;;;;;;13.59;92.81;100368.28;5285491;28;20395;-80
2021/10/29 09:42:09;;;;;;;7.55;4.50;;;;;;;13.66;91.36;100367.03;5282381;28;20030;-77
2021/10/29 09:44:46;;;;;;;9.02;4.85;;;;;;;13.72;91.05;100361.47;5285396;28;20491;-79
2021/10/29 09:47:19;;;;;;;9.13;4.50;;;;;;;13.83;89.92;100362.63;5285618;28;20035;-77
2021/10/29 09:57:36;;;;;;;7.25;4.13;;;;;;;14.18;88.11;100358.13;5277737;28;20053;-77
2021/10/29 10:00:09;;;;;;;9.73;4.03;;;;;;;13.99;91.90;100362.66;5274893;28;20024;-78
2021/10/29 10:02:42;;;;;;;8.52;4.20;;;;;;;13.85;93.82;100366.00;5284494;28;20051;-78
2021/10/29 10:05:15;;;;;;;9.68;4.32;;;;;;;14.02;89.71;100362.47;5277967;27;20100;-78
2021/10/29 10:07:46;;;;;;;8.45;4.38;;;;;;;14.15;92.14;100348.63;5283816;28;20127;-79
2021/10/29 10:10:17;;;;;;;6.95;4.25;;;;;;;14.23;90.25;100350.88;5279744;28;20027;-79
2021/10/29 10:12:49;;;;;;;6.15;3.65;;;;;;;14.46;88.19;100339.94;5285354;28;20030;-79
2021/10/29 10:15:19;;;;;;;7.32;3.97;;;;;;;14.51;88.55;100343.16;5283712;28;20024;-80
2021/10/29 10:17:52;;;;;;;6.00;3.67;;;;;;;14.46;87.14;100346.03;5284329;28;20072;-80
2021/10/29 10:20:24;;;;;;;8.48;4.50;;;;;;;14.41;88.82;100339.38;5262299;28;20499;-77
2021/10/29 10:22:56;;;;;;;6.18;3.88;;;;;;;14.32;89.49;100339.84;5274829;28;20024;-77
2021/10/29 10:28:28;;;;;;;6.88;4.40;;;;;;;14.59;89.94;100330.47;5274105;28;20031;-77
2021/10/29 10:46:18;;;;;;;7.68;5.10;;;;;;;14.98;90.70;100324.63;5246284;28;20039;-77
2021/10/29 10:49:05;;;;;;;8.40;4.63;;;;;;;14.92;91.74;100326.75;5281897;28;20049;-79
2021/10/29 10:54:21;;;;;;;;;;;;;;;15.15;89.17;100323.66;5282550;28;20189;-80
2021/10/29 10:57:12;;;;;;;7.20;3.75;;;;;;;15.16;90.14;100320.94;5283346;28;19912;-77
2021/10/29 11:03:26;;;;;;;4.57;3.13;;;;;;;15.19;91.07;100312.84;5279360;28;20020;-77
2021/10/29 11:11:03;;;;;;;5.83;3.00;;;;;;;15.52;84.09;100305.63;5279919;28;20036;-81
2021/10/29 11:14:03;;;;;;;5.75;2.70;;;;;;;15.60;84.52;100298.13;5261435;28;20277;-79
2021/10/29 11:16:36;;;;;;;5.57;3.05;;;;;;;15.54;85.03;100295.84;5277832;28;20259;-80
2021/10/29 11:19:16;;;;;;;10.43;3.33;;;;;;;15.55;85.31;100301.97;5275915;28;20039;-77
2021/10/29 11:21:55;;;;;;;5.43;3.30;;;;;;;15.44;85.89;100297.34;5277116;28;20028;-78
2021/10/29 11:24:32;;;;;;;6.32;3.42;;;;;;;15.52;86.18;100297.72;5277696;28;20038;-80
2021/10/29 11:27:12;;;;;;;5.38;3.10;;;;;;;15.49;86.55;100297.91;5282739;28;20015;-79
2021/10/29 11:29:48;;;;;;;6.05;3.28;;;;;;;15.61;87.23;100284.00;5282479;28;20410;-78
2021/10/29 11:32:23;;;;;;;6.43;3.20;;;;;;;15.64;87.08;100285.59;5282724;28;20028;-79
2021/10/29 11:34:59;;;;;;;5.13;3.38;;;;;;;15.49;87.55;100287.38;5278405;28;20065;-79
2021/10/29 11:37:34;;;;;;;9.63;3.63;;;;;;;15.57;88.36;100276.38;5282886;28;20027;-78
2021/10/29 11:40:06;;;;;;;7.82;3.58;;;;;;;15.55;87.73;100276.44;5283351;28;20020;-77
2021/10/29 11:42:37;;;;;;;6.43;3.25;;;;;;;15.57;88.95;100269.31;5284240;28;20408;-77
2021/10/29 11:45:07;;;;;;;6.30;3.60;;;;;;;15.69;88.68;100271.19;5283296;28;20357;-77
2021/10/29 11:47:38;;;;;;;6.28;3.70;;;;;;;15.80;87.87;100260.84;5277208;28;20372;-79
2021/10/29 11:50:11;;;;;;;6.95;3.47;;;;;;;15.94;84.69;100252.94;5279122;28;20024;-78
2021/10/29 11:52:43;;;;;;;5.35;3.08;;;;;;;16.01;85.29;100256.88;5283433;28;20035;-77
2021/10/29 12:09:25;;;;;;;6.30;3.60;;;;;;;15.96;83.44;100229.97;5282409;28;20111;-80
2021/10/29 12:11:57;;;;;;;7.07;3.72;;;;;;;16.09;84.27;100225.63;5279647;28;20020;-78
2021/10/29 12:14:32;;;;;;;7.90;3.35;;;;;;;16.17;84.02;100225.97;5283135;28;20556;-77
2021/10/29 12:17:25;;;;;;;8.38;3.90;;;;;;;16.24;85.06;100218.50;5270305;28;20031;-77
2021/10/29 12:19:59;;;;;;;5.90;3.22;;;;;;;16.14;84.63;100212.97;5279401;28;20082;-78
2021/10/29 12:28:07;;;;;;;6.97;3.63;;;;;;;16.23;86.44;100204.47;5279942;28;20171;-77
2021/10/29 12:30:47;;;;;;;7.82;3.67;;;;;;;16.18;86.63;100198.66;5282948;28;20106;-80
2021/10/29 13:01:39;;;;;;;4.40;2.95;;;;;;;16.37;87.34;100175.44;5283652;28;20138;-78
2021/10/29 13:04:12;;;;;;;5.13;2.92;;;;;;;16.21;88.53;100176.53;5285747;28;20524;-77
2021/10/29 13:06:42;;;;;;;5.45;2.58;;;;;;;16.47;84.61;100162.50;5270258;28;20582;-78
2021/10/29 13:09:20;;;;;;;4.60;2.50;;;;;;;16.43;83.40;100150.47;5285694;28;20102;-80
2021/10/29 13:12:08;;;;;;;5.60;2.50;;;;;;;16.58;82.67;100158.19;5270041;28;20027;-80
2021/10/29 13:14:45;;;;;;;4.22;2.17;;;;;;;16.55;84.15;100147.84;5283526;28;20032;-79
2021/10/29 13:17:24;;;;;;;6.68;2.70;;;;;;;16.54;84.36;100147.97;5285581;28;20024;-77
2021/10/29 13:36:38;;;;;;;4.80;2.28;;;;;;;16.47;83.88;100136.97;5284851;28;20026;-78
2021/10/29 13:53:08;;;;;;;5.72;1.85;;;;;;;16.03;86.34;100125.81;5284890;28;20032;-78
2021/10/29 13:58:45;;;;;;;3.03;1.85;;;;;;;15.85;89.38;100131.44;5281785;28;20019;-77
2021/10/29 14:29:24;;;;;;;4.28;1.65;;;;;;;15.41;89.73;100102.66;5281656;28;20024;-79
2021/10/29 14:31:58;;;;;;;6.20;1.88;;;;;;;15.37;89.85;100108.19;5280053;28;20023;-78
2021/10/29 14:34:52;;;;;;;6.68;2.25;;;;;;;15.29;89.95;100103.41;5283957;27;20028;-79
2021/10/29 14:45:08;;;;;;;4.30;1.80;;;;;;;14.50;96.19;100108.28;5283590;28;20023;-80
2021/10/29 14:47:58;;;;;;;3.92;1.77;;;;;;;14.35;97.31;100097.81;5283149;28;20570;-79
2021/10/29 15:04:41;;;;;;;3.97;2.20;;;;;;;13.74;100.00;100083.84;5281016;28;20035;-81
2021/10/29 15:24:33;;;;;;;4.68;2.50;;;;;;;13.39;100.00;100087.56;5281134;28;20043;-78
2021/10/29 15:27:01;;;;;;;5.57;2.60;;;;;;;13.35;100.00;100091.28;5280262;28;20521;-79
2021/10/29 15:29:56;;;;;;;;;;;;;;;13.54;98.58;100090.19;5283451;28;20027;-80
2021/10/29 15:44:16;;;;;;;7.13;3.78;;;;;;;12.81;100.00;100117.78;5280766;28;20514;-80
2021/10/29 15:46:58;;;;;;;7.55;3.90;;;;;;;12.85;100.00;100111.44;5284267;28;20035;-78
2021/10/29 15:52:55;;;;;;;7.82;4.50;;;;;;;12.63;100.00;100110.88;5278441;28;20100;-81
2021/10/29 15:55:35;;;;;;;8.88;4.60;;;;;;;12.59;100.00;100109.34;5282039;28;20024;-77
2021/10/29 15:58:44;;;;;;;10.27;4.72;;;;;;;12.69;99.37;100096.59;5279998;28;20044;-77
2021/10/29 16:04:02;;;;;;;10.77;5.55;;;;;;;12.45;100.00;100082.16;5274828;28;20044;-80
2021/10/29 16:17:48;;;;;;;11.38;6.28;;;;;;;12.32;98.59;100063.56;5286822;28;20034;-78
2021/10/29 16:20:19;;;;;;;11.95;6.15;;;;;;;12.45;97.76;100063.81;5281765;28;20217;-79
2021/10/29 16:22:51;;;;;;;10.57;6.43;;;;;;;12.56;96.67;100053.59;5286882;28;20054;-77
2021/10/29 16:25:27;;;;;;;10.65;6.55;;;;;;;12.60;95.86;100050.75;5285597;27;20031;-80
2021/10/29 16:28:03;;;;;;;14.52;6.50;;;;;;;12.52;96.44;100055.53;5284914;28;20024;-79
2021/10/29 16:30:34;;;;;;;10.10;5.82;;;;;;;12.60;95.33;100061.22;5287137;28;20039;-78
2021/10/29 16:33:07;;;;;;;13.13;6.05;;;;;;;12.54;96.14;100058.94;5289256;28;20158;-80
2021/10/29 16:35:39;;;;;;;11.90;5.80;;;;;;;12.45;96.78;100071.66;5288529;28;20342;-80
2021/10/29 16:38:10;;;;;;;9.73;5.93;;;;;;;12.31;96.91;100068.88;5287503;28;20042;-79
2021/10/29 16:40:40;;;;;;;9.45;5.65;;;;;;;12.24;97.03;100063.09;5285311;28;20127;-80
2021/10/29 16:43:11;;;;;;;11.50;5.60;;;;;;;12.12;98.20;100074.19;5286225;28;20457;-76
2021/10/29 16:45:43;;;;;;;14.27;5.90;;;;;;;11.96;99.14;100070.63;5283548;28;20043;-77